Time,TemperatureF,DewpointF,PressureIn,WindDirection,WindDirectionDegrees,WindSpeedMPH,WindSpeedGustMPH,Humidity,HourlyPrecipIn,Conditions,Clouds,dailyrainin,SoftwareType,DateUTC
2013-10-01 00:01:00,60.5,51.8,29.41,NNE,31,0.0,0.0,73,0.00,CLR,,0.00,WeatherDisplay:10.37,2013-10-01 04:01:00,
2013-10-01 00:06:00,60.5,51.8,29.41,NNE,31,0.0,0.0,73,0.00,CLR,,0.00,WeatherDisplay:10.37,2013-10-01 04:06:00,
2013-10-01 00:11:00,60.5,51.8,29.41,NNE,31,0.0,0.0,73,0.00,CLR,,0.00,WeatherDisplay:10.37,2013-10-01 04:11:00,
2013-10-01 00:16:00,60.5,51.8,29.41,NNE,31,0.0,0.0,73,0.00,CLR,,0.00,WeatherDisplay:10.37,2013-10-01 04:16:00,
2013-10-01 00:21:00,60.5,51.8,29.41,NNE,31,0.0,0.0,73,0.00,CLR,,0.00,WeatherDisplay:10.37,2013-10-01 04:21:00,
2013-10-01 00:27:00,60.1,51.4,29.41,NNE,31,0.0,0.0,73,0.00,CLR,,0.00,WeatherDisplay:10.37,2013-10-01 04:27:00,
2013-10-01 00:32:00,60.1,51.4,29.41,NNE,31,0.0,0.0,73,0.00,CLR,,0.00,WeatherDisplay:10.37,2013-10-01 04:32:00,
2013-10-01 00:37:00,59.9,51.2,29.41,NNE,31,0.0,0.0,73,0.00,CLR,,0.00,WeatherDisplay:10.37,2013-10-01 04:37:00,
2013-10-01 00:42:00,59.9,51.2,29.41,NNE,31,0.0,0.0,73,0.00,CLR,,0.00,WeatherDisplay:10.37,2013-10-01 04:42:00,
2013-10-01 00:47:00,59.9,52.3,29.41,NNE,31,0.0,0.0,76,0.00,CLR,,0.00,WeatherDisplay:10.37,2013-10-01 04:47:00,
2013-10-01 00:52:00,59.6,52.4,29.41,NNE,31,0.0,0.0,77,0.00,CLR,,0.00,WeatherDisplay:10.37,2013-10-01 04:52:00,
2013-10-01 00:57:00,59.6,52.4,29.41,WSW,240,2.0,2.0,77,0.00,CLR,,0.00,WeatherDisplay:10.37,2013-10-01 04:57:00,
2013-10-01 01:02:00,59.9,52.3,29.41,WSW,241,0.0,0.0,76,0.00,CLR,,0.00,WeatherDisplay:10.37,2013-10-01 05:02:00,
2013-10-01 01:07:00,59.9,52.3,29.41,WSW,241,0.0,0.0,76,0.00,CLR,,0.00,WeatherDisplay:10.37,2013-10-01 05:07:00,
2013-10-01 01:12:00,59.9,52.3,29.41,WSW,241,0.0,0.0,76,0.00,CLR,,0.00,WeatherDisplay:10.37,2013-10-01 05:12:00,
2013-10-01 01:17:00,59.9,52.3,29.41,WSW,241,0.0,0.0,76,0.00,CLR,,0.00,WeatherDisplay:10.37,2013-10-01 05:17:00,
2013-10-01 01:22:00,59.9,52.3,29.41,WSW,241,0.0,0.0,76,0.00,CLR,,0.00,WeatherDisplay:10.37,2013-10-01 05:22:00,
2013-10-01 01:27:00,59.8,52.2,29.41,WSW,241,0.0,0.0,76,0.00,CLR,,0.00,WeatherDisplay:10.37,2013-10-01 05:27:00,
2013-10-01 01:32:00,59.6,53.4,29.41,WSW,241,0.0,0.0,80,0.00,CLR,,0.00,WeatherDisplay:10.37,2013-10-01 05:32:00,
2013-10-01 01:37:00,59.5,53.3,29.41,WSW,241,0.0,0.0,80,0.00,CLR,,0.00,WeatherDisplay:10.37,2013-10-01 05:37:00,
2013-10-01 01:42:00,59.5,53.3,29.41,WSW,241,0.0,0.0,80,0.00,CLR,,0.00,WeatherDisplay:10.37,2013-10-01 05:42:00,
2013-10-01 01:47:00,59.5,53.3,29.41,WSW,241,0.0,0.0,80,0.00,CLR,,0.00,WeatherDisplay:10.37,2013-10-01 05:47:00,
2013-10-01 01:52:00,59.5,53.3,29.41,WSW,241,0.0,0.0,80,0.00,CLR,,0.00,WeatherDisplay:10.37,2013-10-01 05:52:00,
2013-10-01 01:57:00,59.2,53.0,29.41,WSW,241,0.0,0.0,80,0.00,CLR,,0.00,WeatherDisplay:10.37,2013-10-01 05:57:00,
2013-10-01 02:02:00,59.2,53.0,29.41,WSW,241,0.0,0.0,80,0.00,CLR,,0.00,WeatherDisplay:10.37,2013-10-01 06:02:00,
2013-10-01 02:07:00,59.2,53.0,29.41,WSW,241,0.0,0.0,80,0.00,CLR,,0.00,WeatherDisplay:10.37,2013-10-01 06:07:00,
2013-10-01 02:12:00,59.2,53.0,29.41,WSW,241,0.0,0.0,80,0.00,CLR,,0.00,WeatherDisplay:10.37,2013-10-01 06:12:00,
2013-10-01 02:17:00,58.9,52.7,29.41,WSW,241,0.0,0.0,80,0.00,CLR,,0.00,WeatherDisplay:10.37,2013-10-01 06:17:00,
2013-10-01 02:22:00,58.7,52.5,29.41,WSW,241,0.0,0.0,80,0.00,CLR,,0.00,WeatherDisplay:10.37,2013-10-01 06:22:00,
2013-10-01 02:27:00,58.6,52.4,29.41,WSW,241,0.0,0.0,80,0.00,CLR,,0.00,WeatherDisplay:10.37,2013-10-01 06:27:00,
2013-10-01 02:32:00,58.6,52.4,29.41,WSW,241,0.0,0.0,80,0.00,CLR,,0.00,WeatherDisplay:10.37,2013-10-01 06:32:00,
2013-10-01 02:37:00,58.7,52.5,29.41,WSW,241,0.0,0.0,80,0.00,CLR,,0.00,WeatherDisplay:10.37,2013-10-01 06:37:00,
2013-10-01 02:42:00,58.7,52.5,29.41,WSW,241,0.0,0.0,80,0.00,CLR,,0.00,WeatherDisplay:10.37,2013-10-01 06:42:00,
2013-10-01 02:48:00,58.7,52.5,29.41,WSW,241,0.0,0.0,80,0.00,CLR,,0.00,WeatherDisplay:10.37,2013-10-01 06:48:00,
2013-10-01 02:53:00,58.7,52.5,29.41,WSW,241,0.0,0.0,80,0.00,CLR,,0.00,WeatherDisplay:10.37,2013-10-01 06:53:00,
2013-10-01 02:58:00,58.7,52.5,29.41,WSW,241,0.0,0.0,80,0.00,CLR,,0.00,WeatherDisplay:10.37,2013-10-01 06:58:00,
2013-10-01 03:03:00,58.7,52.5,29.41,WSW,241,0.0,0.0,80,0.00,CLR,,0.00,WeatherDisplay:10.37,2013-10-01 07:03:00,
2013-10-01 03:08:00,58.7,52.5,29.41,WSW,241,0.0,0.0,80,0.00,CLR,,0.00,WeatherDisplay:10.37,2013-10-01 07:08:00,
2013-10-01 03:13:00,58.7,52.5,29.41,WSW,241,0.0,0.0,80,0.00,CLR,,0.00,WeatherDisplay:10.37,2013-10-01 07:13:00,
2013-10-01 03:18:00,58.7,52.5,29.41,WSW,241,0.0,0.0,80,0.00,CLR,,0.00,WeatherDisplay:10.37,2013-10-01 07:18:00,
2013-10-01 03:23:00,58.0,51.9,29.41,WSW,241,0.0,0.0,80,0.00,CLR,,0.00,WeatherDisplay:10.37,2013-10-01 07:23:00,
2013-10-01 03:28:00,57.8,51.7,29.41,WSW,241,0.0,0.0,80,0.00,CLR,,0.00,WeatherDisplay:10.37,2013-10-01 07:28:00,
2013-10-01 03:33:00,57.8,51.7,29.41,WSW,241,0.0,0.0,80,0.00,CLR,,0.00,WeatherDisplay:10.37,2013-10-01 07:33:00,
2013-10-01 03:38:00,57.8,51.7,29.41,WSW,241,0.0,0.0,80,0.00,CLR,,0.00,WeatherDisplay:10.37,2013-10-01 07:38:00,
2013-10-01 03:43:00,57.0,50.9,29.41,WSW,241,0.0,0.0,80,0.00,CLR,,0.00,WeatherDisplay:10.37,2013-10-01 07:43:00,
2013-10-01 03:48:00,57.0,50.9,29.41,WSW,241,0.0,0.0,80,0.00,CLR,,0.00,WeatherDisplay:10.37,2013-10-01 07:48:00,
2013-10-01 03:54:00,57.0,50.9,29.41,WSW,241,0.0,0.0,80,0.00,CLR,,0.00,WeatherDisplay:10.37,2013-10-01 07:54:00,
2013-10-01 03:59:00,57.0,50.9,29.41,WSW,241,0.0,0.0,80,0.00,CLR,,0.00,WeatherDisplay:10.37,2013-10-01 07:59:00,
2013-10-01 04:04:00,57.0,50.9,29.41,WSW,241,0.0,0.0,80,0.00,CLR,,0.00,WeatherDisplay:10.37,2013-10-01 08:04:00,
2013-10-01 04:09:00,57.0,50.9,29.41,WSW,241,0.0,0.0,80,0.00,CLR,,0.00,WeatherDisplay:10.37,2013-10-01 08:09:00,
2013-10-01 04:14:00,56.9,50.8,29.41,WSW,241,0.0,0.0,80,0.00,CLR,,0.00,WeatherDisplay:10.37,2013-10-01 08:14:00,
2013-10-01 04:19:00,57.0,50.9,29.41,WSW,241,0.0,0.0,80,0.00,CLR,,0.00,WeatherDisplay:10.37,2013-10-01 08:19:00,
2013-10-01 04:24:00,57.0,50.9,29.41,WSW,241,0.0,0.0,80,0.00,CLR,,0.00,WeatherDisplay:10.37,2013-10-01 08:24:00,
2013-10-01 04:29:00,57.0,50.9,29.41,WSW,241,0.0,0.0,80,0.00,CLR,,0.00,WeatherDisplay:10.37,2013-10-01 08:29:00,
2013-10-01 04:34:00,57.0,50.9,29.41,WSW,241,1.1,0.0,80,0.00,CLR,,0.00,WeatherDisplay:10.37,2013-10-01 08:34:00,
2013-10-01 04:39:00,57.0,50.9,29.41,WSW,241,0.0,0.0,80,0.00,CLR,,0.00,WeatherDisplay:10.37,2013-10-01 08:39:00,
2013-10-01 04:44:00,57.3,51.2,29.41,WSW,241,0.0,0.0,80,0.00,CLR,,0.00,WeatherDisplay:10.37,2013-10-01 08:44:00,
2013-10-01 04:49:00,58.0,51.9,29.41,WSW,241,0.0,0.0,80,0.00,CLR,,0.00,WeatherDisplay:10.37,2013-10-01 08:49:00,
2013-10-01 04:54:00,58.0,51.9,29.41,WSW,241,0.0,0.0,80,0.00,CLR,,0.00,WeatherDisplay:10.37,2013-10-01 08:54:00,
2013-10-01 04:59:00,58.3,52.2,29.41,WSW,241,0.0,0.0,80,0.00,CLR,,0.00,WeatherDisplay:10.37,2013-10-01 08:59:00,
2013-10-01 05:05:00,58.3,52.2,29.41,WSW,241,0.0,0.8,80,0.00,CLR,,0.00,WeatherDisplay:10.37,2013-10-01 09:05:00,
2013-10-01 05:10:00,58.3,52.2,29.41,WSW,246,0.0,0.0,80,0.00,CLR,,0.00,WeatherDisplay:10.37,2013-10-01 09:10:00,
2013-10-01 05:15:00,58.3,52.2,29.41,WSW,246,2.0,2.0,80,0.00,CLR,,0.00,WeatherDisplay:10.37,2013-10-01 09:15:00,
2013-10-01 05:20:00,58.3,52.2,29.41,WSW,246,1.1,1.1,80,0.00,CLR,,0.00,WeatherDisplay:10.37,2013-10-01 09:20:00,
2013-10-01 05:25:00,57.8,51.7,29.42,WSW,246,0.0,0.0,80,0.00,CLR,,0.00,WeatherDisplay:10.37,2013-10-01 09:25:00,
2013-10-01 05:30:00,57.8,51.7,29.42,WSW,246,0.0,0.0,80,0.00,CLR,,0.00,WeatherDisplay:10.37,2013-10-01 09:30:00,
2013-10-01 05:35:00,57.5,51.4,29.42,WSW,246,0.0,0.0,80,0.00,CLR,,0.00,WeatherDisplay:10.37,2013-10-01 09:35:00,
2013-10-01 05:40:00,57.5,51.4,29.41,WSW,246,0.0,0.0,80,0.00,CLR,,0.00,WeatherDisplay:10.37,2013-10-01 09:40:00,
2013-10-01 05:45:00,57.3,51.2,29.41,WSW,246,0.0,0.0,80,0.00,CLR,,0.00,WeatherDisplay:10.37,2013-10-01 09:45:00,
2013-10-01 05:50:00,57.3,51.2,29.41,WSW,246,0.0,0.0,80,0.00,CLR,,0.00,WeatherDisplay:10.37,2013-10-01 09:50:00,
2013-10-01 05:55:00,57.2,51.1,29.42,WSW,246,0.0,0.0,80,0.00,CLR,,0.00,WeatherDisplay:10.37,2013-10-01 09:55:00,
2013-10-01 06:00:00,57.0,55.0,29.42,WSW,246,0.0,0.0,93,0.00,CLR,,0.00,WeatherDisplay:10.37,2013-10-01 10:00:00,
2013-10-01 06:05:00,57.0,55.0,29.42,WSW,246,0.0,0.0,93,0.00,CLR,,0.00,WeatherDisplay:10.37,2013-10-01 10:05:00,
2013-10-01 06:10:00,57.0,55.0,29.43,WSW,240,0.0,0.0,93,0.00,CLR,,0.00,WeatherDisplay:10.37,2013-10-01 10:10:00,
2013-10-01 06:15:00,57.0,55.0,29.43,WSW,243,0.0,0.0,93,0.00,CLR,,0.00,WeatherDisplay:10.37,2013-10-01 10:15:00,
2013-10-01 06:20:00,56.9,54.9,29.43,WSW,244,0.0,0.0,93,0.00,CLR,,0.00,WeatherDisplay:10.37,2013-10-01 10:20:00,
2013-10-01 06:25:00,56.9,54.9,29.43,WSW,244,1.1,0.0,93,0.00,CLR,,0.00,WeatherDisplay:10.37,2013-10-01 10:25:00,
2013-10-01 06:30:00,56.9,54.9,29.43,WSW,244,0.0,0.0,93,0.00,CLR,,0.00,WeatherDisplay:10.37,2013-10-01 10:30:00,
2013-10-01 06:35:00,56.9,54.6,29.43,WSW,244,0.0,0.0,92,0.00,CLR,,0.00,WeatherDisplay:10.37,2013-10-01 10:35:00,
2013-10-01 06:40:00,56.6,54.3,29.43,WSW,244,0.0,0.0,92,0.00,CLR,,0.00,WeatherDisplay:10.37,2013-10-01 10:40:00,
2013-10-01 06:45:00,56.5,54.2,29.43,WSW,244,0.0,0.0,92,0.00,CLR,,0.00,WeatherDisplay:10.37,2013-10-01 10:45:00,
2013-10-01 06:51:00,56.5,54.2,29.43,WSW,244,0.0,0.0,92,0.00,CLR,,0.00,WeatherDisplay:10.37,2013-10-01 10:51:00,
2013-10-01 06:56:00,56.5,53.9,29.43,WSW,244,0.0,0.0,91,0.00,CLR,,0.00,WeatherDisplay:10.37,2013-10-01 10:56:00,
2013-10-01 07:01:00,56.5,53.6,29.43,WSW,244,0.0,0.0,90,0.00,CLR,,0.00,WeatherDisplay:10.37,2013-10-01 11:01:00,
2013-10-01 07:06:00,56.6,53.7,29.43,WSW,244,0.0,0.0,90,0.00,CLR,,0.00,WeatherDisplay:10.37,2013-10-01 11:06:00,
2013-10-01 07:11:00,56.6,53.4,29.44,WSW,244,1.1,1.1,89,0.00,CLR,,0.00,WeatherDisplay:10.37,2013-10-01 11:11:00,
2013-10-01 07:16:00,56.7,52.9,29.44,WSW,244,0.0,0.0,87,0.00,CLR,,0.00,WeatherDisplay:10.37,2013-10-01 11:16:00,
2013-10-01 07:21:00,56.7,52.9,29.44,WSW,244,0.0,0.0,87,0.00,CLR,,0.00,WeatherDisplay:10.37,2013-10-01 11:21:00,
2013-10-01 07:26:00,56.9,53.1,29.44,WSW,244,0.0,0.3,87,0.00,CLR,,0.00,WeatherDisplay:10.37,2013-10-01 11:26:00,
2013-10-01 07:31:00,57.0,52.9,29.44,WSW,244,0.0,0.0,86,0.00,CLR,,0.00,WeatherDisplay:10.37,2013-10-01 11:31:00,
2013-10-01 07:36:00,57.0,52.9,29.44,WSW,244,0.0,0.0,86,0.00,CLR,,0.00,WeatherDisplay:10.37,2013-10-01 11:36:00,
2013-10-01 07:41:00,57.2,53.0,29.45,WSW,244,0.0,0.0,86,0.00,CLR,,0.00,WeatherDisplay:10.37,2013-10-01 11:41:00,
2013-10-01 07:46:00,57.2,53.0,29.45,WSW,244,0.0,0.0,86,0.00,CLR,,0.00,WeatherDisplay:10.37,2013-10-01 11:46:00,
2013-10-01 07:52:00,57.2,53.0,29.45,WSW,244,0.0,0.0,86,0.00,CLR,,0.00,WeatherDisplay:10.37,2013-10-01 11:52:00,
2013-10-01 07:57:00,57.3,53.1,29.46,WSW,244,0.0,0.0,86,0.00,CLR,,0.00,WeatherDisplay:10.37,2013-10-01 11:57:00,
2013-10-01 08:02:00,57.3,53.1,29.46,WSW,244,0.0,0.0,86,0.00,CLR,,0.00,WeatherDisplay:10.37,2013-10-01 12:02:00,
2013-10-01 08:07:00,57.3,53.1,29.46,WSW,244,0.0,0.0,86,0.00,CLR,,0.00,WeatherDisplay:10.37,2013-10-01 12:07:00,
2013-10-01 08:12:00,57.5,53.3,29.46,WSW,244,0.0,0.0,86,0.00,CLR,,0.00,WeatherDisplay:10.37,2013-10-01 12:12:00,
2013-10-01 08:17:00,57.5,53.3,29.46,WSW,244,0.0,0.0,86,0.00,CLR,,0.00,WeatherDisplay:10.37,2013-10-01 12:17:00,
2013-10-01 08:22:00,57.5,53.3,29.46,WSW,244,0.0,0.0,86,0.00,CLR,,0.00,WeatherDisplay:10.37,2013-10-01 12:22:00,
2013-10-01 08:27:00,57.6,53.4,29.46,WSW,244,0.0,0.0,86,0.00,CLR,,0.00,WeatherDisplay:10.37,2013-10-01 12:27:00,
2013-10-01 08:32:00,57.6,53.4,29.46,WSW,244,0.0,0.0,86,0.00,CLR,,0.00,WeatherDisplay:10.37,2013-10-01 12:32:00,
2013-10-01 08:37:00,57.6,53.4,29.46,WSW,244,0.0,0.0,86,0.00,CLR,,0.00,WeatherDisplay:10.37,2013-10-01 12:37:00,
2013-10-01 08:42:00,57.6,53.4,29.46,WSW,244,0.0,0.0,86,0.00,CLR,,0.00,WeatherDisplay:10.37,2013-10-01 12:42:00,
2013-10-01 08:47:00,57.6,53.4,29.46,WSW,244,0.0,0.0,86,0.00,CLR,,0.00,WeatherDisplay:10.37,2013-10-01 12:47:00,
2013-10-01 08:52:00,57.6,53.4,29.46,WSW,244,0.0,0.0,86,0.00,CLR,,0.00,WeatherDisplay:10.37,2013-10-01 12:52:00,
2013-10-01 08:58:00,59.2,55.0,29.46,WSW,244,1.1,1.1,86,0.00,CLR,,0.00,WeatherDisplay:10.37,2013-10-01 12:58:00,
2013-10-01 09:03:00,59.8,55.6,29.46,WSW,244,2.3,2.3,86,0.00,CLR,,0.00,WeatherDisplay:10.37,2013-10-01 13:03:00,
2013-10-01 09:08:00,60.2,55.0,29.46,WSW,251,5.8,5.8,83,0.00,CLR,,0.00,WeatherDisplay:10.37,2013-10-01 13:08:00,
2013-10-01 09:13:00,60.2,55.0,29.47,WSW,251,3.5,3.5,83,0.00,CLR,,0.00,WeatherDisplay:10.37,2013-10-01 13:13:00,
2013-10-01 09:18:00,61.5,56.3,29.47,WSW,251,3.5,3.5,83,0.00,CLR,,0.00,WeatherDisplay:10.37,2013-10-01 13:18:00,
2013-10-01 09:23:00,62.3,57.1,29.47,West,263,3.5,3.5,83,0.00,CLR,,0.00,WeatherDisplay:10.37,2013-10-01 13:23:00,
2013-10-01 09:28:00,62.9,57.7,29.46,WSW,246,3.5,3.5,83,0.00,CLR,,0.00,WeatherDisplay:10.37,2013-10-01 13:28:00,
2013-10-01 09:33:00,63.5,55.8,29.46,WSW,243,4.6,4.6,76,0.00,CLR,,0.00,WeatherDisplay:10.37,2013-10-01 13:33:00,
2013-10-01 09:38:00,64.2,56.5,29.46,WSW,247,3.5,3.5,76,0.00,CLR,,0.00,WeatherDisplay:10.37,2013-10-01 13:38:00,
2013-10-01 09:43:00,64.5,56.8,29.46,WSW,251,5.8,5.8,76,0.00,CLR,,0.00,WeatherDisplay:10.37,2013-10-01 13:43:00,
2013-10-01 09:48:00,65.2,57.4,29.46,WSW,251,3.0,3.0,76,0.00,CLR,,0.00,WeatherDisplay:10.37,2013-10-01 13:48:00,
2013-10-01 09:53:00,65.6,57.8,29.46,WSW,253,2.3,0.0,76,0.00,CLR,,0.00,WeatherDisplay:10.37,2013-10-01 13:53:00,
2013-10-01 09:58:00,66.3,58.5,29.46,WSW,253,4.0,4.0,76,0.00,CLR,,0.00,WeatherDisplay:10.37,2013-10-01 13:58:00,
2013-10-01 10:03:00,66.6,58.8,29.46,WSW,250,5.0,5.3,76,0.00,CLR,,0.00,WeatherDisplay:10.37,2013-10-01 14:03:00,
2013-10-01 10:08:00,67.1,59.3,29.47,West,265,3.5,3.5,76,0.00,CLR,,0.00,WeatherDisplay:10.37,2013-10-01 14:08:00,
2013-10-01 10:13:00,67.3,59.5,29.47,WSW,250,1.1,0.0,76,0.00,CLR,,0.00,WeatherDisplay:10.37,2013-10-01 14:13:00,
2013-10-01 10:18:00,67.3,59.5,29.47,WSW,254,5.8,5.8,76,0.00,CLR,,0.00,WeatherDisplay:10.37,2013-10-01 14:18:00,
2013-10-01 10:23:00,68.1,60.2,29.47,WSW,248,7.0,7.0,76,0.00,CLR,,0.00,WeatherDisplay:10.37,2013-10-01 14:23:00,
2013-10-01 10:28:00,68.1,60.2,29.47,SW,222,0.0,0.0,76,0.00,CLR,,0.00,WeatherDisplay:10.37,2013-10-01 14:28:00,
2013-10-01 10:33:00,68.1,60.2,29.47,NW,304,0.0,0.0,76,0.00,CLR,,0.00,WeatherDisplay:10.37,2013-10-01 14:33:00,
2013-10-01 10:38:00,69.4,57.1,29.47,SW,222,5.8,5.8,65,0.00,CLR,,0.00,WeatherDisplay:10.37,2013-10-01 14:38:00,
2013-10-01 10:43:00,69.6,57.3,29.47,WSW,257,2.3,2.3,65,0.00,CLR,,0.00,WeatherDisplay:10.37,2013-10-01 14:43:00,
2013-10-01 10:48:00,69.6,57.3,29.47,West,264,0.0,0.0,65,0.00,CLR,,0.00,WeatherDisplay:10.37,2013-10-01 14:48:00,
2013-10-01 10:54:00,70.1,58.2,29.47,West,267,6.9,6.9,66,0.00,CLR,,0.00,WeatherDisplay:10.37,2013-10-01 14:54:00,
2013-10-01 10:59:00,70.1,58.2,29.47,SW,230,2.3,2.3,66,0.00,CLR,,0.00,WeatherDisplay:10.37,2013-10-01 14:59:00,
2013-10-01 11:04:00,70.6,58.7,29.47,WSW,253,4.6,4.9,66,0.00,CLR,,0.00,WeatherDisplay:10.37,2013-10-01 15:04:00,
2013-10-01 11:09:00,70.9,59.0,29.46,West,281,6.9,6.9,66,0.00,CLR,,0.00,WeatherDisplay:10.37,2013-10-01 15:09:00,
2013-10-01 11:14:00,70.9,59.0,29.46,WSW,237,8.1,8.1,66,0.00,CLR,,0.00,WeatherDisplay:10.37,2013-10-01 15:14:00,
2013-10-01 11:19:00,71.6,58.8,29.46,West,274,5.8,5.8,64,0.00,CLR,,0.00,WeatherDisplay:10.37,2013-10-01 15:19:00,
2013-10-01 11:24:00,72.0,59.2,29.46,WSW,253,8.1,8.1,64,0.00,CLR,,0.00,WeatherDisplay:10.37,2013-10-01 15:24:00,
2013-10-01 11:29:00,72.1,59.2,29.46,WSW,253,3.5,3.5,64,0.00,CLR,,0.00,WeatherDisplay:10.37,2013-10-01 15:29:00,
2013-10-01 11:34:00,72.5,59.6,29.46,WNW,282,0.0,0.0,64,0.00,CLR,,0.00,WeatherDisplay:10.37,2013-10-01 15:34:00,
2013-10-01 11:39:00,73.2,59.4,29.46,WSW,246,4.6,4.6,62,0.00,CLR,,0.00,WeatherDisplay:10.37,2013-10-01 15:39:00,
2013-10-01 11:44:00,73.3,59.5,29.46,WSW,237,4.6,5.0,62,0.00,CLR,,0.00,WeatherDisplay:10.37,2013-10-01 15:44:00,
2013-10-01 11:50:00,73.5,59.2,29.46,WSW,257,3.5,3.5,61,0.00,CLR,,0.00,WeatherDisplay:10.37,2013-10-01 15:50:00,
2013-10-01 11:55:00,73.9,59.6,29.45,SW,234,4.6,4.6,61,0.00,CLR,,0.00,WeatherDisplay:10.37,2013-10-01 15:55:00,
2013-10-01 12:00:00,73.9,59.6,29.45,SW,234,0.0,0.0,61,0.00,CLR,,0.00,WeatherDisplay:10.37,2013-10-01 16:00:00,
2013-10-01 12:05:00,74.7,61.7,29.45,WSW,243,3.5,3.5,64,0.00,CLR,,0.00,WeatherDisplay:10.37,2013-10-01 16:05:00,
2013-10-01 12:10:00,75.1,62.1,29.45,SW,223,5.0,5.0,64,0.00,CLR,,0.00,WeatherDisplay:10.37,2013-10-01 16:10:00,
2013-10-01 12:16:00,75.3,62.3,29.45,SW,233,0.0,0.0,64,0.00,CLR,,0.00,WeatherDisplay:10.37,2013-10-01 16:16:00,
2013-10-01 12:21:00,75.3,62.3,29.45,WSW,251,0.0,0.0,64,0.00,CLR,,0.00,WeatherDisplay:10.37,2013-10-01 16:21:00,
2013-10-01 12:26:00,75.8,62.8,29.44,WNW,285,0.0,0.0,64,0.00,CLR,,0.00,WeatherDisplay:10.37,2013-10-01 16:26:00,
2013-10-01 12:31:00,76.5,63.4,29.44,SSW,206,3.5,3.5,64,0.00,CLR,,0.00,WeatherDisplay:10.37,2013-10-01 16:31:00,
2013-10-01 12:36:00,76.5,63.4,29.44,WSW,247,0.0,0.0,64,0.00,CLR,,0.00,WeatherDisplay:10.37,2013-10-01 16:36:00,
2013-10-01 12:41:00,76.5,63.4,29.44,West,261,1.1,1.1,64,0.00,CLR,,0.00,WeatherDisplay:10.37,2013-10-01 16:41:00,
2013-10-01 12:46:00,76.8,63.7,29.44,WSW,254,2.3,2.3,64,0.00,CLR,,0.00,WeatherDisplay:10.37,2013-10-01 16:46:00,
2013-10-01 12:51:00,76.8,63.7,29.44,WSW,254,2.3,2.3,64,0.00,CLR,,0.00,WeatherDisplay:10.37,2013-10-01 16:51:00,
2013-10-01 12:56:00,77.6,57.5,29.43,WSW,253,5.0,5.0,50,0.00,CLR,,0.00,WeatherDisplay:10.37,2013-10-01 16:56:00,
2013-10-01 13:01:00,77.6,57.5,29.43,WSW,244,4.6,0.0,50,0.00,CLR,,0.00,WeatherDisplay:10.37,2013-10-01 17:01:00,
2013-10-01 13:06:00,78.3,58.1,29.43,West,265,4.6,4.6,50,0.00,CLR,,0.00,WeatherDisplay:10.37,2013-10-01 17:06:00,
2013-10-01 13:11:00,78.1,57.9,29.43,WSW,244,2.3,2.3,50,0.00,CLR,,0.00,WeatherDisplay:10.37,2013-10-01 17:11:00,
2013-10-01 13:16:00,78.3,58.1,29.43,WSW,248,0.0,0.0,50,0.00,CLR,,0.00,WeatherDisplay:10.37,2013-10-01 17:16:00,
2013-10-01 13:21:00,78.3,58.1,29.43,West,265,1.1,2.8,50,0.00,CLR,,0.00,WeatherDisplay:10.37,2013-10-01 17:21:00,
2013-10-01 13:26:00,78.5,56.0,29.42,West,271,3.5,3.5,46,0.00,CLR,,0.00,WeatherDisplay:10.37,2013-10-01 17:26:00,
2013-10-01 13:31:00,78.6,56.1,29.42,WSW,256,2.3,2.3,46,0.00,CLR,,0.00,WeatherDisplay:10.37,2013-10-01 17:31:00,
2013-10-01 13:36:00,78.6,56.1,29.42,North,353,0.0,0.0,46,0.00,CLR,,0.00,WeatherDisplay:10.37,2013-10-01 17:36:00,
2013-10-01 13:41:00,79.4,55.0,29.41,WSW,251,5.0,5.0,43,0.00,CLR,,0.00,WeatherDisplay:10.37,2013-10-01 17:41:00,
2013-10-01 13:46:00,79.2,55.4,29.41,WNW,301,1.1,1.1,44,0.00,CLR,,0.00,WeatherDisplay:10.37,2013-10-01 17:46:00,
2013-10-01 13:51:00,79.2,55.4,29.41,WSW,251,5.0,5.0,44,0.00,CLR,,0.00,WeatherDisplay:10.37,2013-10-01 17:51:00,
2013-10-01 13:56:00,79.0,55.2,29.41,West,270,1.1,1.1,44,0.00,CLR,,0.00,WeatherDisplay:10.37,2013-10-01 17:56:00,
2013-10-01 14:01:00,79.2,57.2,29.41,West,268,2.0,2.0,47,0.00,CLR,,0.00,WeatherDisplay:10.37,2013-10-01 18:01:00,
2013-10-01 14:06:00,79.8,57.2,29.41,West,264,2.3,2.3,46,0.00,CLR,,0.00,WeatherDisplay:10.37,2013-10-01 18:06:00,
2013-10-01 14:11:00,79.9,57.9,29.40,West,261,0.0,0.6,47,0.00,CLR,,0.00,WeatherDisplay:10.37,2013-10-01 18:11:00,
2013-10-01 14:17:00,79.6,57.6,29.40,West,261,0.0,0.0,47,0.00,CLR,,0.00,WeatherDisplay:10.37,2013-10-01 18:17:00,
2013-10-01 14:22:00,80.3,57.6,29.40,West,261,0.0,0.0,46,0.00,CLR,,0.00,WeatherDisplay:10.37,2013-10-01 18:22:00,
2013-10-01 14:27:00,80.9,58.2,29.40,West,261,0.0,0.0,46,0.00,CLR,,0.00,WeatherDisplay:10.37,2013-10-01 18:27:00,
2013-10-01 14:32:00,81.1,58.4,29.40,West,261,0.0,0.0,46,0.00,CLR,,0.00,WeatherDisplay:10.37,2013-10-01 18:32:00,
2013-10-01 14:37:00,81.2,58.5,29.40,West,261,0.0,0.0,46,0.00,CLR,,0.00,WeatherDisplay:10.37,2013-10-01 18:37:00,
2013-10-01 14:42:00,80.1,57.5,29.39,WSW,237,3.5,3.5,46,0.00,CLR,,0.00,WeatherDisplay:10.37,2013-10-01 18:42:00,
2013-10-01 14:47:00,80.3,57.0,29.39,WSW,237,0.0,0.0,45,0.00,CLR,,0.00,WeatherDisplay:10.37,2013-10-01 18:47:00,
2013-10-01 14:52:00,80.7,57.4,29.39,WSW,237,0.0,0.0,45,0.00,CLR,,0.00,WeatherDisplay:10.37,2013-10-01 18:52:00,
2013-10-01 14:58:00,80.7,57.4,29.39,SW,236,3.5,4.2,45,0.00,CLR,,0.00,WeatherDisplay:10.37,2013-10-01 18:58:00,
2013-10-01 15:03:00,80.7,56.8,29.39,WSW,244,2.3,2.3,44,0.00,CLR,,0.00,WeatherDisplay:10.37,2013-10-01 19:03:00,
2013-10-01 15:08:00,80.1,57.5,29.39,WSW,241,0.0,0.0,46,0.00,CLR,,0.00,WeatherDisplay:10.37,2013-10-01 19:08:00,
2013-10-01 15:13:00,79.6,59.3,29.39,WSW,241,0.0,0.0,50,0.00,CLR,,0.00,WeatherDisplay:10.37,2013-10-01 19:13:00,
2013-10-01 15:18:00,79.6,59.3,29.39,WSW,241,0.0,0.0,50,0.00,CLR,,0.00,WeatherDisplay:10.37,2013-10-01 19:18:00,
2013-10-01 15:23:00,79.8,61.7,29.39,WSW,241,0.0,0.0,54,0.00,CLR,,0.00,WeatherDisplay:10.37,2013-10-01 19:23:00,
2013-10-01 15:28:00,79.9,62.3,29.38,WSW,241,0.0,0.0,55,0.00,CLR,,0.00,WeatherDisplay:10.37,2013-10-01 19:28:00,
2013-10-01 15:33:00,79.6,60.4,29.38,WSW,241,0.0,0.0,52,0.00,CLR,,0.00,WeatherDisplay:10.37,2013-10-01 19:33:00,
2013-10-01 15:38:00,79.6,63.5,29.38,WSW,241,0.0,0.0,58,0.00,CLR,,0.00,WeatherDisplay:10.37,2013-10-01 19:38:00,
2013-10-01 15:43:00,79.6,62.0,29.38,WSW,241,0.0,0.0,55,0.00,CLR,,0.00,WeatherDisplay:10.37,2013-10-01 19:43:00,
2013-10-01 15:48:00,79.4,60.8,29.38,WSW,241,0.0,0.0,53,0.00,CLR,,0.00,WeatherDisplay:10.37,2013-10-01 19:48:00,
2013-10-01 15:53:00,79.6,61.0,29.38,WSW,241,0.0,0.0,53,0.00,CLR,,0.00,WeatherDisplay:10.37,2013-10-01 19:53:00,
2013-10-01 15:58:00,80.1,61.4,29.38,WSW,241,0.0,0.0,53,0.00,CLR,,0.00,WeatherDisplay:10.37,2013-10-01 19:58:00,
2013-10-01 16:03:00,80.1,61.4,29.38,WSW,241,0.0,0.0,53,0.00,CLR,,0.00,WeatherDisplay:10.37,2013-10-01 20:03:00,
2013-10-01 16:08:00,80.1,61.4,29.37,North,11,0.0,0.0,53,0.00,CLR,,0.00,WeatherDisplay:10.37,2013-10-01 20:08:00,
2013-10-01 16:13:00,80.1,61.4,29.37,North,0,0.0,0.0,53,0.00,CLR,,0.00,WeatherDisplay:10.37,2013-10-01 20:13:00,
2013-10-01 16:18:00,80.1,61.4,29.37,North,0,0.0,0.0,53,0.00,CLR,,0.00,WeatherDisplay:10.37,2013-10-01 20:18:00,
2013-10-01 16:23:00,80.1,61.4,29.37,WSW,241,0.0,0.0,53,0.00,CLR,,0.00,WeatherDisplay:10.37,2013-10-01 20:23:00,
2013-10-01 16:28:00,80.1,61.4,29.37,WSW,241,0.0,0.0,53,0.00,CLR,,0.00,WeatherDisplay:10.37,2013-10-01 20:28:00,
2013-10-01 16:33:00,80.1,61.4,29.37,WSW,241,0.0,0.0,53,0.00,CLR,,0.00,WeatherDisplay:10.37,2013-10-01 20:33:00,
2013-10-01 16:38:00,80.1,61.4,29.37,WSW,241,0.0,0.0,53,0.00,CLR,,0.00,WeatherDisplay:10.37,2013-10-01 20:38:00,
2013-10-01 16:43:00,80.1,61.4,29.37,WSW,241,0.0,0.0,53,0.00,CLR,,0.00,WeatherDisplay:10.37,2013-10-01 20:43:00,
2013-10-01 16:48:00,81.4,62.6,29.37,WSW,241,0.0,0.0,53,0.00,CLR,,0.00,WeatherDisplay:10.37,2013-10-01 20:48:00,
2013-10-01 16:53:00,81.4,62.6,29.37,WSW,241,0.0,0.0,53,0.00,CLR,,0.00,WeatherDisplay:10.37,2013-10-01 20:53:00,
2013-10-01 16:58:00,81.4,62.6,29.37,WSW,241,0.0,0.0,53,0.00,CLR,,0.00,WeatherDisplay:10.37,2013-10-01 20:58:00,
2013-10-01 17:03:00,81.4,62.6,29.37,WSW,241,0.0,0.0,53,0.00,CLR,,0.00,WeatherDisplay:10.37,2013-10-01 21:03:00,
2013-10-01 17:08:00,81.4,62.6,29.37,WSW,241,0.0,0.0,53,0.00,CLR,,0.00,WeatherDisplay:10.37,2013-10-01 21:08:00,
2013-10-01 17:13:00,81.4,62.6,29.37,West,260,4.0,4.0,53,0.00,CLR,,0.00,WeatherDisplay:10.37,2013-10-01 21:13:00,
2013-10-01 17:19:00,81.4,62.6,29.37,SW,227,3.5,3.5,53,0.00,CLR,,0.00,WeatherDisplay:10.37,2013-10-01 21:19:00,
2013-10-01 17:24:00,81.4,62.6,29.37,WSW,253,1.1,1.1,53,0.00,CLR,,0.00,WeatherDisplay:10.37,2013-10-01 21:24:00,
2013-10-01 17:29:00,81.4,62.6,29.37,WSW,250,0.0,0.0,53,0.00,CLR,,0.00,WeatherDisplay:10.37,2013-10-01 21:29:00,
2013-10-01 17:34:00,81.4,62.6,29.37,WSW,251,0.0,0.0,53,0.00,CLR,,0.00,WeatherDisplay:10.37,2013-10-01 21:34:00,
2013-10-01 17:39:00,81.4,62.6,29.38,WSW,251,0.0,0.0,53,0.00,CLR,,0.00,WeatherDisplay:10.37,2013-10-01 21:39:00,
2013-10-01 17:44:00,81.4,62.6,29.38,WSW,251,0.0,0.0,53,0.00,CLR,,0.00,WeatherDisplay:10.37,2013-10-01 21:44:00,
2013-10-01 17:49:00,81.4,62.6,29.38,North,0,0.0,0.0,53,0.00,CLR,,0.00,WeatherDisplay:10.37,2013-10-01 21:49:00,
2013-10-01 17:54:00,81.4,62.6,29.38,North,0,0.0,0.0,53,0.00,CLR,,0.00,WeatherDisplay:10.37,2013-10-01 21:54:00,
2013-10-01 17:59:00,78.3,59.8,29.38,WSW,251,0.0,0.0,53,0.00,CLR,,0.00,WeatherDisplay:10.37,2013-10-01 21:59:00,
2013-10-01 18:04:00,78.3,59.8,29.38,WSW,251,0.0,0.0,53,0.00,CLR,,0.00,WeatherDisplay:10.37,2013-10-01 22:04:00,
2013-10-01 18:09:00,78.3,59.8,29.38,WSW,251,0.0,0.0,53,0.00,CLR,,0.00,WeatherDisplay:10.37,2013-10-01 22:09:00,
2013-10-01 18:14:00,77.2,62.2,29.38,SW,236,0.0,0.0,60,0.00,CLR,,0.00,WeatherDisplay:10.37,2013-10-01 22:14:00,
2013-10-01 18:19:00,77.2,62.2,29.38,North,1,0.0,0.0,60,0.00,CLR,,0.00,WeatherDisplay:10.37,2013-10-01 22:19:00,
2013-10-01 18:24:00,77.2,62.2,29.38,North,4,0.0,0.0,60,0.00,CLR,,0.00,WeatherDisplay:10.37,2013-10-01 22:24:00,
2013-10-01 18:29:00,75.6,60.7,29.38,ESE,116,0.0,0.0,60,0.00,CLR,,0.00,WeatherDisplay:10.37,2013-10-01 22:29:00,
2013-10-01 18:34:00,75.6,60.7,29.38,ESE,116,0.0,0.0,60,0.00,CLR,,0.00,WeatherDisplay:10.37,2013-10-01 22:34:00,
2013-10-01 18:39:00,74.7,59.9,29.38,ESE,116,0.0,0.0,60,0.00,CLR,,0.00,WeatherDisplay:10.37,2013-10-01 22:39:00,
2013-10-01 18:44:00,74.0,62.8,29.38,ESE,116,0.0,0.0,68,0.00,CLR,,0.00,WeatherDisplay:10.37,2013-10-01 22:44:00,
2013-10-01 18:49:00,73.5,62.3,29.38,ESE,116,0.0,0.0,68,0.00,CLR,,0.00,WeatherDisplay:10.37,2013-10-01 22:49:00,
2013-10-01 18:54:00,73.5,62.3,29.38,ESE,116,0.0,0.0,68,0.00,CLR,,0.00,WeatherDisplay:10.37,2013-10-01 22:54:00,
2013-10-01 19:00:00,73.5,62.3,29.38,ESE,114,0.0,0.0,68,0.00,CLR,,0.00,WeatherDisplay:10.37,2013-10-01 23:00:00,
2013-10-01 19:05:00,72.5,61.3,29.38,ESE,114,0.0,0.0,68,0.00,CLR,,0.00,WeatherDisplay:10.37,2013-10-01 23:05:00,
2013-10-01 19:10:00,72.5,61.3,29.39,ESE,114,0.0,0.0,68,0.00,CLR,,0.00,WeatherDisplay:10.37,2013-10-01 23:10:00,
2013-10-01 19:15:00,72.5,61.3,29.39,ESE,114,0.0,0.0,68,0.00,CLR,,0.00,WeatherDisplay:10.37,2013-10-01 23:15:00,
2013-10-01 19:20:00,72.5,61.3,29.39,ESE,114,0.0,0.0,68,0.00,CLR,,0.00,WeatherDisplay:10.37,2013-10-01 23:20:00,
2013-10-01 19:25:00,72.5,61.3,29.39,ESE,114,0.0,0.0,68,0.00,CLR,,0.00,WeatherDisplay:10.37,2013-10-01 23:25:00,
2013-10-01 19:30:00,72.5,61.3,29.39,ESE,114,0.0,0.0,68,0.00,CLR,,0.00,WeatherDisplay:10.37,2013-10-01 23:30:00,
2013-10-01 19:35:00,72.5,61.3,29.39,North,0,0.0,0.0,68,0.00,CLR,,0.00,WeatherDisplay:10.37,2013-10-01 23:35:00,
2013-10-01 19:40:00,72.5,61.3,29.39,North,0,0.0,0.0,68,0.00,CLR,,0.00,WeatherDisplay:10.37,2013-10-01 23:40:00,
2013-10-01 19:45:00,72.5,61.3,29.39,North,0,0.0,0.0,68,0.00,CLR,,0.00,WeatherDisplay:10.37,2013-10-01 23:45:00,
2013-10-01 19:50:00,72.5,61.3,29.39,North,0,0.0,0.0,68,0.00,CLR,,0.00,WeatherDisplay:10.37,2013-10-01 23:50:00,
2013-10-01 19:55:00,72.5,61.3,29.40,North,0,0.0,0.0,68,0.00,CLR,,0.00,WeatherDisplay:10.37,2013-10-01 23:55:00,
2013-10-01 20:00:00,72.5,61.3,29.40,North,0,0.0,0.0,68,0.00,CLR,,0.00,WeatherDisplay:10.37,2013-10-02 00:00:00,
2013-10-01 20:05:00,72.5,61.3,29.40,North,0,0.0,0.0,68,0.00,CLR,,0.00,WeatherDisplay:10.37,2013-10-02 00:05:00,
2013-10-01 20:10:00,72.5,61.3,29.40,North,0,0.0,0.0,68,0.00,CLR,,0.00,WeatherDisplay:10.37,2013-10-02 00:10:00,
2013-10-01 20:15:00,72.5,61.3,29.40,North,0,0.0,0.0,68,0.00,CLR,,0.00,WeatherDisplay:10.37,2013-10-02 00:15:00,
2013-10-01 20:17:00,72.5,61.3,29.40,North,0,0.0,0.0,68,0.00,CLR,,0.00,WeatherDisplay:10.37,2013-10-02 00:17:00,
2013-10-01 20:22:00,72.5,61.3,29.40,North,0,0.0,0.0,68,0.00,CLR,,0.00,WeatherDisplay:10.37,2013-10-02 00:22:00,
2013-10-01 20:27:00,72.5,61.3,29.40,North,0,0.0,0.0,68,0.00,CLR,,0.00,WeatherDisplay:10.37,2013-10-02 00:27:00,
2013-10-01 20:32:00,72.5,61.3,29.40,North,0,0.0,0.0,68,0.00,CLR,,0.00,WeatherDisplay:10.37,2013-10-02 00:32:00,
2013-10-01 20:37:00,72.5,61.3,29.40,North,0,0.0,0.0,68,0.00,CLR,,0.00,WeatherDisplay:10.37,2013-10-02 00:37:00,
2013-10-01 20:42:00,72.5,61.3,29.40,North,0,0.0,0.0,68,0.00,CLR,,0.00,WeatherDisplay:10.37,2013-10-02 00:42:00,
2013-10-01 20:47:00,72.5,61.3,29.40,North,0,0.0,0.0,68,0.00,CLR,,0.00,WeatherDisplay:10.37,2013-10-02 00:47:00,
2013-10-01 20:52:00,72.5,61.3,29.40,North,0,0.0,0.0,68,0.00,CLR,,0.00,WeatherDisplay:10.37,2013-10-02 00:52:00,
2013-10-01 20:57:00,72.5,61.3,29.40,North,0,0.0,0.0,68,0.00,CLR,,0.00,WeatherDisplay:10.37,2013-10-02 00:57:00,
2013-10-01 21:02:00,72.5,61.3,29.40,North,0,0.0,0.0,68,0.00,CLR,,0.00,WeatherDisplay:10.37,2013-10-02 01:02:00,
2013-10-01 21:07:00,72.5,61.3,29.40,North,0,0.0,0.0,68,0.00,CLR,,0.00,WeatherDisplay:10.37,2013-10-02 01:07:00,
2013-10-01 21:12:00,72.5,61.3,29.41,North,0,0.0,0.0,68,0.00,CLR,,0.00,WeatherDisplay:10.37,2013-10-02 01:12:00,
2013-10-01 21:17:00,72.5,61.3,29.41,North,0,0.0,0.0,68,0.00,CLR,,0.00,WeatherDisplay:10.37,2013-10-02 01:17:00,
2013-10-01 21:22:00,72.5,61.3,29.41,North,0,0.0,0.0,68,0.00,CLR,,0.00,WeatherDisplay:10.37,2013-10-02 01:22:00,
2013-10-01 21:27:00,72.5,61.3,29.41,North,0,0.0,0.0,68,0.00,CLR,,0.00,WeatherDisplay:10.37,2013-10-02 01:27:00,
2013-10-01 21:32:00,72.5,61.3,29.41,North,0,0.0,0.0,68,0.00,CLR,,0.00,WeatherDisplay:10.37,2013-10-02 01:32:00,
2013-10-01 21:37:00,72.5,61.3,29.41,North,0,0.0,0.0,68,0.00,CLR,,0.00,WeatherDisplay:10.37,2013-10-02 01:37:00,
2013-10-01 21:42:00,72.5,61.3,29.41,North,0,0.0,0.0,68,0.00,CLR,,0.00,WeatherDisplay:10.37,2013-10-02 01:42:00,
2013-10-01 21:47:00,72.5,61.3,29.41,North,0,0.0,0.0,68,0.00,CLR,,0.00,WeatherDisplay:10.37,2013-10-02 01:47:00,
2013-10-01 21:52:00,72.5,61.3,29.41,North,0,0.0,0.0,68,0.00,CLR,,0.00,WeatherDisplay:10.37,2013-10-02 01:52:00,
2013-10-01 21:57:00,72.5,61.3,29.41,North,0,0.0,0.0,68,0.00,CLR,,0.00,WeatherDisplay:10.37,2013-10-02 01:57:00,
2013-10-01 22:02:00,72.5,61.3,29.41,North,0,0.0,0.0,68,0.00,CLR,,0.00,WeatherDisplay:10.37,2013-10-02 02:02:00,
2013-10-01 22:07:00,72.5,61.3,29.41,North,0,0.0,0.0,68,0.00,CLR,,0.00,WeatherDisplay:10.37,2013-10-02 02:07:00,
2013-10-01 22:12:00,72.5,61.3,29.41,North,0,0.0,0.0,68,0.00,CLR,,0.00,WeatherDisplay:10.37,2013-10-02 02:12:00,
2013-10-01 22:17:00,72.5,61.3,29.41,North,0,0.0,0.0,68,0.00,CLR,,0.00,WeatherDisplay:10.37,2013-10-02 02:17:00,
2013-10-01 22:22:00,72.5,61.3,29.41,North,0,0.0,0.0,68,0.00,CLR,,0.00,WeatherDisplay:10.37,2013-10-02 02:22:00,
2013-10-01 22:27:00,72.5,61.3,29.42,North,0,0.0,0.0,68,0.00,CLR,,0.00,WeatherDisplay:10.37,2013-10-02 02:27:00,
2013-10-01 22:32:00,72.5,61.3,29.42,North,0,0.0,0.0,68,0.00,CLR,,0.00,WeatherDisplay:10.37,2013-10-02 02:32:00,
2013-10-01 22:37:00,72.5,61.3,29.42,North,0,0.0,0.0,68,0.00,CLR,,0.00,WeatherDisplay:10.37,2013-10-02 02:37:00,
2013-10-01 22:42:00,72.5,61.3,29.42,North,0,0.0,0.0,68,0.00,CLR,,0.00,WeatherDisplay:10.37,2013-10-02 02:42:00,
2013-10-01 22:47:00,72.5,61.3,29.42,North,0,0.0,0.0,68,0.00,CLR,,0.00,WeatherDisplay:10.37,2013-10-02 02:47:00,
2013-10-01 22:52:00,72.5,61.3,29.42,North,0,0.0,0.0,68,0.00,CLR,,0.00,WeatherDisplay:10.37,2013-10-02 02:52:00,
2013-10-01 22:57:00,72.5,61.3,29.42,North,0,0.0,0.0,68,0.00,CLR,,0.00,WeatherDisplay:10.37,2013-10-02 02:57:00,
2013-10-01 23:02:00,72.5,61.3,29.42,North,0,0.0,0.0,68,0.00,CLR,,0.00,WeatherDisplay:10.37,2013-10-02 03:02:00,
2013-10-01 23:07:00,72.5,61.3,29.42,North,0,0.0,0.0,68,0.00,CLR,,0.00,WeatherDisplay:10.37,2013-10-02 03:07:00,
2013-10-01 23:12:00,72.5,61.3,29.42,North,0,0.0,0.0,68,0.00,CLR,,0.00,WeatherDisplay:10.37,2013-10-02 03:12:00,
2013-10-01 23:17:00,72.5,61.3,29.42,North,0,0.0,0.0,68,0.00,CLR,,0.00,WeatherDisplay:10.37,2013-10-02 03:17:00,
2013-10-01 23:22:00,72.5,61.3,29.42,North,0,0.0,0.0,68,0.00,CLR,,0.00,WeatherDisplay:10.37,2013-10-02 03:22:00,
2013-10-01 23:27:00,72.5,61.3,29.42,North,0,0.0,0.0,68,0.00,CLR,,0.00,WeatherDisplay:10.37,2013-10-02 03:27:00,
2013-10-01 23:32:00,72.5,61.3,29.42,North,0,0.0,0.0,68,0.00,CLR,,0.00,WeatherDisplay:10.37,2013-10-02 03:32:00,
2013-10-01 23:37:00,72.5,61.3,29.42,North,0,0.0,0.0,68,0.00,CLR,,0.00,WeatherDisplay:10.37,2013-10-02 03:37:00,
2013-10-01 23:42:00,72.5,61.3,29.43,North,0,0.0,0.0,68,0.00,CLR,,0.00,WeatherDisplay:10.37,2013-10-02 03:42:00,
2013-10-01 23:47:00,72.5,61.3,29.43,North,0,0.0,0.0,68,0.00,CLR,,0.00,WeatherDisplay:10.37,2013-10-02 03:47:00,
2013-10-01 23:52:00,72.5,61.3,29.43,North,0,0.0,0.0,68,0.00,CLR,,0.00,WeatherDisplay:10.37,2013-10-02 03:52:00,
2013-10-01 23:57:00,72.5,61.3,29.42,North,0,0.0,0.0,68,0.00,CLR,,0.00,WeatherDisplay:10.37,2013-10-02 03:57:00,